sensor_id;sensor_type;location;lat;lon;timestamp;P1;durP1;ratioP1;P2;durP2;ratioP2
57321;SDS011;43159;51.006;18.224;2023-06-26T00:01:49;10.70;;;4.60;;
57321;SDS011;43159;51.006;18.224;2023-06-26T00:11:32;9.80;;;3.70;;
57321;SDS011;43159;51.006;18.224;2023-06-26T00:21:19;15.20;;;5.60;;
57321;SDS011;43159;51.006;18.224;2023-06-26T00:31:02;6.50;;;2.70;;
57321;SDS011;43159;51.006;18.224;2023-06-26T00:40:44;12.40;;;4.10;;
57321;SDS011;43159;51.006;18.224;2023-06-26T00:50:28;11.60;;;5.90;;
57321;SDS011;43159;51.006;18.224;2023-06-26T01:00:26;25.20;;;5.00;;
57321;SDS011;43159;51.006;18.224;2023-06-26T01:10:21;14.20;;;6.80;;
57321;SDS011;43159;51.006;18.224;2023-06-26T01:20:46;14.10;;;6.70;;
57321;SDS011;43159;51.006;18.224;2023-06-26T01:31:24;11.80;;;5.50;;
57321;SDS011;43159;51.006;18.224;2023-06-26T01:41:13;13.60;;;5.70;;
57321;SDS011;43159;51.006;18.224;2023-06-26T01:51:21;11.50;;;5.70;;
57321;SDS011;43159;51.006;18.224;2023-06-26T02:01:49;17.40;;;7.00;;
57321;SDS011;43159;51.006;18.224;2023-06-26T02:24:31;18.40;;;4.50;;
57321;SDS011;43159;51.006;18.224;2023-06-26T02:35:11;13.80;;;5.80;;
57321;SDS011;43159;51.006;18.224;2023-06-26T02:46:05;17.10;;;4.90;;
57321;SDS011;43159;51.006;18.224;2023-06-26T02:56:50;18.80;;;5.90;;
57321;SDS011;43159;51.006;18.224;2023-06-26T03:07:42;13.70;;;6.00;;
57321;SDS011;43159;51.006;18.224;2023-06-26T03:17:24;14.00;;;6.80;;
57321;SDS011;43159;51.006;18.224;2023-06-26T03:27:09;21.50;;;6.30;;
57321;SDS011;43159;51.006;18.224;2023-06-26T03:36:51;27.70;;;7.10;;
57321;SDS011;43159;51.006;18.224;2023-06-26T03:46:33;31.00;;;7.10;;
57321;SDS011;43159;51.006;18.224;2023-06-26T03:56:15;18.40;;;6.90;;
57321;SDS011;43159;51.006;18.224;2023-06-26T04:05:57;12.80;;;5.80;;
57321;SDS011;43159;51.006;18.224;2023-06-26T04:15:42;17.70;;;8.10;;
57321;SDS011;43159;51.006;18.224;2023-06-26T04:23:03;21.10;;;9.60;;
57321;SDS011;43159;51.006;18.224;2023-06-26T04:32:46;14.60;;;6.90;;
57321;SDS011;43159;51.006;18.224;2023-06-26T04:42:31;23.80;;;7.80;;
57321;SDS011;43159;51.006;18.224;2023-06-26T04:52:14;15.20;;;7.00;;
57321;SDS011;43159;51.006;18.224;2023-06-26T05:01:56;19.40;;;8.30;;
57321;SDS011;43159;51.006;18.224;2023-06-26T05:11:39;12.00;;;6.20;;
57321;SDS011;43159;51.006;18.224;2023-06-26T05:21:25;12.50;;;6.90;;
57321;SDS011;43159;51.006;18.224;2023-06-26T05:31:14;13.40;;;6.90;;
57321;SDS011;43159;51.006;18.224;2023-06-26T05:40:57;15.00;;;7.20;;
57321;SDS011;43159;51.006;18.224;2023-06-26T05:48:14;15.80;;;9.20;;
57321;SDS011;43159;51.006;18.224;2023-06-26T05:57:58;11.70;;;5.50;;
57321;SDS011;43159;51.006;18.224;2023-06-26T06:07:47;11.00;;;5.50;;
57321;SDS011;43159;51.006;18.224;2023-06-26T06:17:30;10.80;;;5.80;;
57321;SDS011;43159;51.006;18.224;2023-06-26T06:27:14;11.80;;;6.60;;
57321;SDS011;43159;51.006;18.224;2023-06-26T06:36:57;10.50;;;5.60;;
57321;SDS011;43159;51.006;18.224;2023-06-26T06:46:39;13.10;;;5.80;;
57321;SDS011;43159;51.006;18.224;2023-06-26T06:56:21;10.10;;;5.20;;
57321;SDS011;43159;51.006;18.224;2023-06-26T07:06:04;11.20;;;5.20;;
57321;SDS011;43159;51.006;18.224;2023-06-26T07:15:49;9.20;;;4.90;;
57321;SDS011;43159;51.006;18.224;2023-06-26T07:25:32;6.60;;;3.30;;
57321;SDS011;43159;51.006;18.224;2023-06-26T07:35:15;9.20;;;4.30;;
57321;SDS011;43159;51.006;18.224;2023-06-26T07:44:57;9.10;;;4.00;;
57321;SDS011;43159;51.006;18.224;2023-06-26T07:54:40;6.30;;;3.20;;
57321;SDS011;43159;51.006;18.224;2023-06-26T08:04:24;7.60;;;3.20;;
57321;SDS011;43159;51.006;18.224;2023-06-26T08:14:10;8.30;;;3.10;;
57321;SDS011;43159;51.006;18.224;2023-06-26T08:23:56;14.70;;;3.00;;
57321;SDS011;43159;51.006;18.224;2023-06-26T08:33:38;10.10;;;3.90;;
57321;SDS011;43159;51.006;18.224;2023-06-26T08:43:20;8.20;;;3.30;;
57321;SDS011;43159;51.006;18.224;2023-06-26T09:03:16;12.30;;;3.20;;
57321;SDS011;43159;51.006;18.224;2023-06-26T09:12:58;8.10;;;3.30;;
57321;SDS011;43159;51.006;18.224;2023-06-26T09:22:47;7.90;;;2.40;;
57321;SDS011;43159;51.006;18.224;2023-06-26T09:32:33;8.70;;;3.40;;
57321;SDS011;43159;51.006;18.224;2023-06-26T09:42:18;7.30;;;2.90;;
57321;SDS011;43159;51.006;18.224;2023-06-26T09:52:02;9.00;;;3.30;;
57321;SDS011;43159;51.006;18.224;2023-06-26T10:01:47;9.40;;;3.50;;
57321;SDS011;43159;51.006;18.224;2023-06-26T10:21:29;9.30;;;3.50;;
57321;SDS011;43159;51.006;18.224;2023-06-26T10:31:15;6.10;;;2.40;;
57321;SDS011;43159;51.006;18.224;2023-06-26T10:41:19;9.20;;;3.50;;
57321;SDS011;43159;51.006;18.224;2023-06-26T10:51:22;6.90;;;3.20;;
57321;SDS011;43159;51.006;18.224;2023-06-26T11:22:48;8.60;;;3.00;;
57321;SDS011;43159;51.006;18.224;2023-06-26T11:32:37;3.00;;;1.50;;
57321;SDS011;43159;51.006;18.224;2023-06-26T11:42:25;9.70;;;3.20;;
57321;SDS011;43159;51.006;18.224;2023-06-26T11:52:11;8.80;;;3.40;;
57321;SDS011;43159;51.006;18.224;2023-06-26T12:01:58;9.20;;;4.00;;
57321;SDS011;43159;51.006;18.224;2023-06-26T12:11:44;9.10;;;3.40;;
57321;SDS011;43159;51.006;18.224;2023-06-26T12:31:51;12.40;;;3.30;;
57321;SDS011;43159;51.006;18.224;2023-06-26T12:51:55;13.80;;;3.70;;
57321;SDS011;43159;51.006;18.224;2023-06-26T13:01:37;10.40;;;3.20;;
57321;SDS011;43159;51.006;18.224;2023-06-26T13:11:20;8.50;;;2.90;;
57321;SDS011;43159;51.006;18.224;2023-06-26T13:34:19;7.60;;;2.80;;
57321;SDS011;43159;51.006;18.224;2023-06-26T13:44:05;6.20;;;3.10;;
57321;SDS011;43159;51.006;18.224;2023-06-26T13:53:47;10.00;;;4.10;;
57321;SDS011;43159;51.006;18.224;2023-06-26T14:03:32;5.30;;;1.70;;
57321;SDS011;43159;51.006;18.224;2023-06-26T14:13:14;8.10;;;2.70;;
57321;SDS011;43159;51.006;18.224;2023-06-26T14:22:58;5.30;;;2.50;;
57321;SDS011;43159;51.006;18.224;2023-06-26T14:32:40;12.40;;;3.70;;
57321;SDS011;43159;51.006;18.224;2023-06-26T14:42:26;8.40;;;2.90;;
57321;SDS011;43159;51.006;18.224;2023-06-26T14:52:08;9.10;;;3.00;;
57321;SDS011;43159;51.006;18.224;2023-06-26T15:01:55;11.60;;;3.20;;
57321;SDS011;43159;51.006;18.224;2023-06-26T15:11:37;9.50;;;3.60;;
57321;SDS011;43159;51.006;18.224;2023-06-26T15:21:19;20.80;;;5.60;;
57321;SDS011;43159;51.006;18.224;2023-06-26T15:31:01;9.10;;;3.00;;
57321;SDS011;43159;51.006;18.224;2023-06-26T15:40:44;3.00;;;1.50;;
57321;SDS011;43159;51.006;18.224;2023-06-26T15:50:26;12.80;;;6.10;;
57321;SDS011;43159;51.006;18.224;2023-06-26T16:00:10;7.10;;;3.40;;
57321;SDS011;43159;51.006;18.224;2023-06-26T16:09:56;6.20;;;3.00;;
57321;SDS011;43159;51.006;18.224;2023-06-26T16:19:38;6.50;;;2.40;;
57321;SDS011;43159;51.006;18.224;2023-06-26T16:29:22;9.10;;;2.90;;
57321;SDS011;43159;51.006;18.224;2023-06-26T16:39:06;6.90;;;3.10;;
57321;SDS011;43159;51.006;18.224;2023-06-26T16:48:48;8.50;;;3.10;;
57321;SDS011;43159;51.006;18.224;2023-06-26T16:58:30;8.50;;;3.20;;
57321;SDS011;43159;51.006;18.224;2023-06-26T17:08:14;9.00;;;3.30;;
57321;SDS011;43159;51.006;18.224;2023-06-26T17:17:57;9.20;;;2.70;;
57321;SDS011;43159;51.006;18.224;2023-06-26T17:27:40;7.60;;;2.40;;
57321;SDS011;43159;51.006;18.224;2023-06-26T17:37:25;8.40;;;3.20;;
57321;SDS011;43159;51.006;18.224;2023-06-26T17:47:10;8.70;;;2.60;;
57321;SDS011;43159;51.006;18.224;2023-06-26T17:56:52;8.30;;;3.00;;
57321;SDS011;43159;51.006;18.224;2023-06-26T18:06:35;7.90;;;2.40;;
57321;SDS011;43159;51.006;18.224;2023-06-26T18:16:20;8.20;;;2.80;;
57321;SDS011;43159;51.006;18.224;2023-06-26T18:26:02;8.50;;;2.80;;
57321;SDS011;43159;51.006;18.224;2023-06-26T18:35:50;14.40;;;3.90;;
57321;SDS011;43159;51.006;18.224;2023-06-26T18:45:32;10.80;;;4.10;;
57321;SDS011;43159;51.006;18.224;2023-06-26T18:55:18;12.40;;;3.90;;
57321;SDS011;43159;51.006;18.224;2023-06-26T19:05:04;11.00;;;4.60;;
57321;SDS011;43159;51.006;18.224;2023-06-26T19:14:48;13.00;;;4.60;;
57321;SDS011;43159;51.006;18.224;2023-06-26T19:24:34;11.10;;;5.50;;
57321;SDS011;43159;51.006;18.224;2023-06-26T19:34:17;9.40;;;3.50;;
57321;SDS011;43159;51.006;18.224;2023-06-26T19:44:01;10.90;;;5.10;;
57321;SDS011;43159;51.006;18.224;2023-06-26T19:53:43;16.90;;;5.90;;
57321;SDS011;43159;51.006;18.224;2023-06-26T20:03:26;10.90;;;4.60;;
57321;SDS011;43159;51.006;18.224;2023-06-26T20:13:08;20.00;;;4.00;;
57321;SDS011;43159;51.006;18.224;2023-06-26T20:20:28;13.50;;;6.10;;
57321;SDS011;43159;51.006;18.224;2023-06-26T20:30:13;12.70;;;5.50;;
57321;SDS011;43159;51.006;18.224;2023-06-26T20:40:08;15.90;;;4.60;;
57321;SDS011;43159;51.006;18.224;2023-06-26T20:50:01;12.40;;;4.80;;
57321;SDS011;43159;51.006;18.224;2023-06-26T20:59:46;12.70;;;6.50;;
57321;SDS011;43159;51.006;18.224;2023-06-26T21:09:28;11.70;;;5.20;;
57321;SDS011;43159;51.006;18.224;2023-06-26T21:19:11;10.40;;;4.40;;
57321;SDS011;43159;51.006;18.224;2023-06-26T21:28:53;9.50;;;4.20;;
57321;SDS011;43159;51.006;18.224;2023-06-26T21:38:35;12.10;;;4.00;;
57321;SDS011;43159;51.006;18.224;2023-06-26T21:48:18;10.80;;;3.80;;
57321;SDS011;43159;51.006;18.224;2023-06-26T21:58:00;13.60;;;4.90;;
57321;SDS011;43159;51.006;18.224;2023-06-26T22:07:45;12.00;;;4.80;;
57321;SDS011;43159;51.006;18.224;2023-06-26T22:17:29;10.60;;;3.00;;
57321;SDS011;43159;51.006;18.224;2023-06-26T22:27:15;11.50;;;3.80;;
57321;SDS011;43159;51.006;18.224;2023-06-26T22:36:58;6.20;;;1.90;;
57321;SDS011;43159;51.006;18.224;2023-06-26T22:46:41;12.00;;;4.30;;
57321;SDS011;43159;51.006;18.224;2023-06-26T22:56:23;11.00;;;4.00;;
57321;SDS011;43159;51.006;18.224;2023-06-26T23:06:06;14.10;;;5.20;;
57321;SDS011;43159;51.006;18.224;2023-06-26T23:15:52;20.20;;;6.00;;
57321;SDS011;43159;51.006;18.224;2023-06-26T23:25:38;10.40;;;3.50;;
57321;SDS011;43159;51.006;18.224;2023-06-26T23:35:21;16.60;;;4.50;;
57321;SDS011;43159;51.006;18.224;2023-06-26T23:45:14;11.90;;;5.80;;
57321;SDS011;43159;51.006;18.224;2023-06-26T23:55:00;9.50;;;3.10;;
